Flight Track Log - Related Links

Times and Time Zones

All times are in EDT time to prevent confusion due to time zone crossing. See the RPA3108 flight status page for this flight to view local times or setup timezone preferences in your user account.

Time Position Orientation Groundspeed Altitude Reporting Facility
EDT Latitude Longitude Course Direction KTS MPH feet Rate Location/Type
Wed 06:48:27 AM 32.9439 -79.9272 30° Northeast 214 246 5,500  Level Jacksonville Center
Wed 06:49:00 AM 33.0721 -79.5743 54° Northeast  Level FlightAware Approximate
Wed 06:49:27 AM 32.9711 -79.8447 69° East 243 280 9,200  Level Jacksonville Center
Wed 06:50:00 AM 33.1353 -79.4690 54° Northeast  Level FlightAware Approximate
Wed 06:50:27 AM 33.0086 -79.7617 62° Northeast 265 305 12,500  Level Jacksonville Center
Wed 06:51:00 AM 33.2011 -79.3660 28° Northeast  Level FlightAware Approximate
Wed 06:51:27 AM 33.0761 -79.7022 36° Northeast 278 320 15,300  Level Jacksonville Center
Wed 06:52:00 AM 33.2970 -79.3050 28° Northeast  Level FlightAware Approximate
Wed 06:52:27 AM 33.1494 -79.6350 37° Northeast 300 345 17,900  Level Jacksonville Center
Wed 06:53:00 AM 33.3927 -79.2435 30° Northeast  Level FlightAware Approximate
Wed 06:53:27 AM 33.2269 -79.5678 36° Northeast 326 375 20,700  Level Jacksonville Center
Wed 06:54:27 AM 33.3064 -79.4928 38° Northeast 346 398 22,900 2,200 Climbing Jacksonville Center
Wed 06:55:27 AM 33.3900 -79.4172 37° Northeast 360 414 25,100 1,950 Climbing Jacksonville Center
Wed 06:56:27 AM 33.4775 -79.3392 37° Northeast 377 434 26,800 1,550 Climbing Jacksonville Center
Wed 06:57:27 AM 33.5650 -79.2558 38° Northeast 389 448 28,200 1,590 Climbing Jacksonville Center
Wed 06:59:13 AM 33.7258 -79.1094 37° Northeast 399 459 31,200 1,653 Climbing Washington Center
Wed 07:00:14 AM 33.8200 -79.0261 36° Northeast 404 465 32,800 885 Climbing Washington Center
Wed 07:01:15 AM 33.9122 -78.9372 39° Northeast 415 478 33,000 98 Climbing Washington Center
Wed 07:02:16 AM 34.0064 -78.8533 36° Northeast 420 483 33,000  Level Washington Center
Wed 07:03:13 AM 34.1006 -78.7669 37° Northeast 420 483 33,000  Level Washington Center
Wed 07:04:15 AM 34.1925 -78.6825 37° Northeast 420 483 33,000  Level Washington Center
Wed 07:05:16 AM 34.2883 -78.6031 34° Northeast 420 483 33,000  Level Washington Center
Wed 07:06:14 AM 34.3842 -78.5261 34° Northeast 420 483 33,000  Level Washington Center
Wed 07:07:14 AM 34.4800 -78.4489 34° Northeast 415 478 33,000  Level Washington Center
Wed 07:08:15 AM 34.5756 -78.3742 33° Northeast 410 472 33,000  Level Washington Center
Wed 07:09:15 AM 34.6692 -78.2992 33° Northeast 405 466 33,000  Level Washington Center
Wed 07:10:16 AM 34.7625 -78.2264 33° Northeast 405 466 33,000  Level Washington Center
Wed 07:11:14 AM 34.8519 -78.1483 36° Northeast 399 459 33,000  Level Washington Center
Wed 07:12:14 AM 34.9408 -78.0775 33° Northeast 393 452 33,000  Level Washington Center
Wed 07:13:15 AM 35.0364 -78.0019 33° Northeast 393 452 33,000  Level Washington Center
Wed 07:14:16 AM 35.1256 -77.9283 34° Northeast 393 452 33,000  Level Washington Center
Wed 07:15:16 AM 35.2144 -77.8572 33° Northeast 388 447 33,000  Level Washington Center
Wed 07:16:16 AM 35.3075 -77.7861 32° Northeast 383 441 33,000  Level Washington Center
Wed 07:17:14 AM 35.3986 -77.7119 34° Northeast 383 441 33,000  Level Washington Center
Wed 07:18:14 AM 35.4875 -77.6378 34° Northeast 383 441 33,000  Level Washington Center
Wed 07:19:16 AM 35.5786 -77.5636 34° Northeast 383 441 33,000  Level Washington Center
Wed 07:20:15 AM 35.6800 -77.4817 33° Northeast 383 441 33,000  Level Washington Center
Wed 07:21:15 AM 35.7708 -77.4069 34° Northeast 388 447 33,000  Level Washington Center
Wed 07:22:16 AM 35.8597 -77.3347 33° Northeast 383 441 33,000  Level Washington Center
Wed 07:23:16 AM 35.9483 -77.2650 32° Northeast 378 435 33,000  Level Washington Center
Wed 07:24:14 AM 36.0347 -77.1897 35° Northeast 378 435 33,000 -151 Level Washington Center
Wed 07:25:15 AM 36.1172 -77.1194 35° Northeast 378 435 32,700 -639 Descending Washington Center
Wed 07:26:16 AM 36.2056 -77.0489 33° Northeast 373 429 31,700 -1,160 Descending Washington Center
Wed 07:27:14 AM 36.2900 -76.9783 34° Northeast 373 429 30,400 -1,311 Descending Washington Center
Wed 07:28:15 AM 36.3742 -76.9075 34° Northeast 373 429 29,100 -694 Descending Washington Center
Wed 07:29:15 AM 36.4625 -76.8342 34° Northeast 373 429 29,000 -50 Descending Washington Center
Wed 07:30:14 AM 36.5531 -76.7606 33° Northeast 378 435 29,000  Level Washington Center
Wed 07:31:15 AM 36.6433 -76.6844 34° Northeast 383 441 29,000  Level Washington Center
Wed 07:32:15 AM 36.7317 -76.6053 36° Northeast 383 441 29,000  Level Washington Center
Wed 07:33:16 AM 36.8242 -76.5286 34° Northeast 383 441 29,000  Level Washington Center
Wed 07:34:16 AM 36.9122 -76.4544 34° Northeast 383 441 29,000  Level Washington Center
Wed 07:35:14 AM 37.0006 -76.3772 35° Northeast 383 441 29,000  Level Washington Center
Wed 07:36:14 AM 37.0906 -76.3000 34° Northeast 383 441 29,000  Level Washington Center
Wed 07:37:16 AM 37.1786 -76.2253 34° Northeast 378 435 29,000  Level Washington Center
Wed 07:38:16 AM 37.2731 -76.1531 31° Northeast 378 435 29,000 -51 Level Washington Center
Wed 07:39:14 AM 37.3608 -76.0753 35° Northeast 383 441 28,900 -559 Descending Washington Center
Wed 07:40:14 AM 37.4489 -76.0000 34° Northeast 383 441 27,900 -992 Descending Washington Center
Wed 07:41:15 AM 37.5367 -75.9219 35° Northeast 383 441 26,900 -984 Descending Washington Center
Wed 07:42:16 AM 37.6181 -75.8514 34° Northeast 372 428 25,900 -942 Descending Washington Center
Wed 07:43:16 AM 37.6994 -75.7808 34° Northeast 366 421 25,000 -966 Descending Washington Center
Wed 07:44:14 AM 37.7831 -75.7075 35° Northeast 361 415 24,000 -1,271 Descending Washington Center
Wed 07:45:14 AM 37.8686 -75.6339 34° Northeast 361 415 22,500 -1,488 Descending Washington Center
Wed 07:46:15 AM 37.9542 -75.5603 34° Northeast 361 415 21,000 -744 Descending Washington Center
Wed 07:47:15 AM 38.0375 -75.4889 34° Northeast 361 415 21,000  Level Washington Center
Wed 07:48:16 AM 38.1250 -75.4256 30° Northeast 361 415 21,000  Level Washington Center
Wed 07:49:14 AM 38.2147 -75.3672 27° Northeast 356 410 21,000  Level Washington Center
Wed 07:50:14 AM 38.3042 -75.3086 27° Northeast 356 410 21,000 -393 Level Washington Center
Wed 07:51:16 AM 38.3936 -75.2525 26° Northeast 351 404 20,200 -1,350 Descending Washington Center
Wed 07:52:14 AM 38.4853 -75.1964 26° Northeast 351 404 18,300 -1,900 Descending Washington Center
Wed 07:53:16 AM 38.5706 -75.1375 28° Northeast 351 404 16,400 -1,672 Descending Washington Center
Wed 07:54:16 AM 38.6578 -75.0811 27° Northeast 346 398 14,900 -763 Descending Washington Center
Wed 07:55:14 AM 38.7389 -75.0275 27° Northeast 341 392 14,900  Level Washington Center
Wed 07:56:14 AM 38.8242 -74.9789 24° Northeast 341 392 14,900  Level Washington Center
Wed 07:57:15 AM 38.9072 -74.9247 27° Northeast 336 387 14,900  Level Washington Center
Wed 07:58:14 AM 38.9903 -74.8706 27° Northeast 336 387 14,900 -50 Level Washington Center
Wed 07:59:14 AM 39.0753 -74.8136 27° Northeast 336 387 14,800 -942 Descending Washington Center
Wed 08:00:15 AM 39.1692 -74.8258 354° North 328 377 13,000 -1,701 Descending Washington Center
Wed 08:02:21 AM 39.3500 -74.9000 342° North 283 326 9,500 -1,323 Descending Philadelphia TRACON
Wed 08:03:21 AM 39.4167 -74.9167 349° North 285 328 8,900 -810 Descending Philadelphia TRACON
Wed 08:04:27 AM 39.5000 -74.9667 335° Northwest 287 330 7,800 -857 Descending Philadelphia TRACON
Wed 08:05:27 AM 39.4833 -75.0667 258° West 268 308 7,100 -350 Descending Philadelphia TRACON
Wed 08:06:27 AM 39.4667 -75.1500 256° West 214 246 7,100 -350 Level Philadelphia TRACON
Wed 08:07:27 AM 39.4500 -75.2167 252° West 216 249 6,400 -500 Descending Philadelphia TRACON
Wed 08:08:27 AM 39.4167 -75.2833 237° Southwest 217 250 6,100 -150 Descending Philadelphia TRACON
Wed 08:09:27 AM 39.4500 -75.3167 322° Northwest 203 234 6,100  Level Philadelphia TRACON
Wed 08:10:33 AM 39.5167 -75.3333 349° North 203 234 6,100  Level Philadelphia TRACON
Wed 08:11:33 AM 39.5667 -75.3500 346° North 202 232 6,100  Level Philadelphia TRACON
Wed 08:12:39 AM 39.6333 -75.3667 349° North 202 232 6,100 -53 Level Philadelphia TRACON
Wed 08:13:27 AM 39.6667 -75.3667 360° North 199 229 6,000 -765 Descending Philadelphia TRACON
Wed 08:14:21 AM 39.7167 -75.3833 346° North 178 205 4,800 -1,056 Descending Philadelphia TRACON
Wed 08:15:15 AM 39.7333 -75.4333 293° West 193 222 4,100 -333 Descending Philadelphia TRACON
Wed 08:16:27 AM 39.7167 -75.5167 255° West 191 220 4,100  Level Philadelphia TRACON
Wed 08:17:27 AM 39.7500 -75.5500 322° Northwest 181 208 4,100  Level Philadelphia TRACON
Wed 08:18:27 AM 39.7833 -75.5333 21° North 166 191 4,100 -476 Level Philadelphia TRACON
Wed 08:19:33 AM 39.8167 -75.4833 49° Northeast 161 185 3,100 -667 Descending Philadelphia TRACON
Wed 08:20:33 AM 39.8333 -75.4333 67° East 159 183 2,700 -600 Descending Philadelphia TRACON
Wed 08:21:33 AM 39.8333 -75.3833 90° East 139 160 1,900 -714 Descending Philadelphia TRACON
Wed 08:22:39 AM 39.8500 -75.3333 67° East 97 112 1,200 -650 Descending Philadelphia TRACON
Wed 08:23:33 AM 39.8500 -75.3000 90° East 115 132 600 -667 Descending Philadelphia TRACON

Login

Don't have an account? Register now (free) for customized features, flight alerts, and more!